createdAt,value
2023-03-03T00:01:14.477Z,34
2023-03-03T00:06:22.437Z,34
2023-03-03T00:11:30.343Z,34
2023-03-03T00:16:38.294Z,34
2023-03-03T00:21:44.404Z,34
2023-03-03T00:26:52.351Z,34
2023-03-03T00:32:00.288Z,34
2023-03-03T00:37:08.293Z,34
2023-03-03T00:42:16.212Z,35
2023-03-03T00:47:24.167Z,35
2023-03-03T00:52:32.143Z,35
2023-03-03T00:57:40.060Z,35
2023-03-03T01:02:48.097Z,35
2023-03-03T01:07:56.007Z,35
2023-03-03T01:13:03.971Z,35
2023-03-03T01:18:11.901Z,35
2023-03-03T01:23:19.885Z,35
2023-03-03T01:28:27.806Z,35
2023-03-03T01:33:35.785Z,35
2023-03-03T01:38:43.756Z,35
2023-03-03T01:43:51.683Z,36
2023-03-03T01:48:59.630Z,36
2023-03-03T01:54:07.625Z,35
2023-03-03T01:59:15.553Z,36
2023-03-03T02:04:23.518Z,36
2023-03-03T02:09:31.814Z,35
2023-03-03T02:14:39.416Z,36
2023-03-03T02:19:47.535Z,35
2023-03-03T02:24:55.377Z,35
2023-03-03T02:30:03.299Z,36
2023-03-03T02:35:11.260Z,36
2023-03-03T02:40:19.243Z,36
2023-03-03T02:45:27.229Z,36
2023-03-03T02:50:35.133Z,36
2023-03-03T02:55:43.119Z,36
2023-03-03T03:00:51.124Z,36
2023-03-03T03:05:58.986Z,36
2023-03-03T03:11:07.011Z,36
2023-03-03T03:16:14.945Z,36
2023-03-03T03:21:22.880Z,36
2023-03-03T03:26:30.871Z,36
2023-03-03T03:31:38.790Z,36
2023-03-03T03:36:46.769Z,36
2023-03-03T03:41:54.737Z,37
2023-03-03T03:47:02.694Z,37
2023-03-03T03:52:10.626Z,37
2023-03-03T03:57:18.624Z,37
2023-03-03T04:02:26.676Z,37
2023-03-03T04:07:34.524Z,37
2023-03-03T04:12:42.508Z,37
2023-03-03T04:17:50.416Z,37
2023-03-03T04:22:58.407Z,38
2023-03-03T04:28:06.377Z,38
2023-03-03T04:33:14.295Z,38
2023-03-03T04:38:22.277Z,38
2023-03-03T04:43:30.240Z,38
2023-03-03T04:48:38.180Z,38
2023-03-03T04:53:46.131Z,38
2023-03-03T04:58:54.124Z,38
2023-03-03T05:04:02.039Z,38
2023-03-03T05:09:08.136Z,38
2023-03-03T05:14:16.101Z,39
2023-03-03T05:19:24.025Z,39
2023-03-03T05:24:32.021Z,39
2023-03-03T05:29:39.958Z,39
2023-03-03T05:34:47.913Z,39
2023-03-03T05:39:55.897Z,39
2023-03-03T05:45:03.858Z,39
2023-03-03T05:50:11.774Z,39
2023-03-03T05:55:19.758Z,39
2023-03-03T06:00:27.727Z,40
2023-03-03T06:05:35.664Z,40
2023-03-03T06:10:43.670Z,40
2023-03-03T06:15:51.630Z,39
2023-03-03T06:20:59.559Z,40
2023-03-03T06:26:07.492Z,40
2023-03-03T06:31:15.630Z,40
2023-03-03T06:36:23.450Z,40
2023-03-03T06:41:31.348Z,40
2023-03-03T06:46:39.357Z,40
2023-03-03T06:51:47.294Z,40
2023-03-03T06:56:55.257Z,40
2023-03-03T07:02:03.258Z,41
2023-03-03T07:07:11.161Z,41
2023-03-03T07:12:19.157Z,41
2023-03-03T07:17:27.114Z,41
2023-03-03T07:22:35.072Z,41
2023-03-03T07:27:43.033Z,41
2023-03-03T07:32:50.999Z,41
2023-03-03T07:37:58.941Z,41
2023-03-03T07:43:06.908Z,41
2023-03-03T07:48:14.878Z,41
2023-03-03T07:53:22.825Z,41
2023-03-03T07:58:30.785Z,41
2023-03-03T08:03:38.755Z,41
2023-03-03T08:08:46.703Z,41
2023-03-03T08:13:54.648Z,41
2023-03-03T08:19:02.933Z,41
2023-03-03T08:24:10.552Z,41
2023-03-03T08:29:18.505Z,41
2023-03-03T08:34:26.537Z,41
2023-03-03T08:39:34.593Z,41
2023-03-03T08:44:42.386Z,41
2023-03-03T08:49:50.375Z,41
2023-03-03T08:54:58.309Z,42
2023-03-03T09:00:06.272Z,42
2023-03-03T09:05:14.277Z,42
2023-03-03T09:10:22.204Z,42
2023-03-03T09:15:30.138Z,42
2023-03-03T09:20:38.160Z,42
2023-03-03T09:25:46.085Z,42
2023-03-03T09:30:54.043Z,42
2023-03-03T09:36:02.065Z,42
2023-03-03T09:41:09.945Z,42
2023-03-03T09:46:17.948Z,42
2023-03-03T09:51:25.907Z,42
2023-03-03T09:56:33.835Z,42
2023-03-03T10:01:41.790Z,42
2023-03-03T10:06:49.751Z,42
2023-03-03T10:11:57.687Z,42
2023-03-03T10:17:05.652Z,42
2023-03-03T10:22:13.640Z,42
2023-03-03T10:27:21.554Z,42
2023-03-03T10:32:29.825Z,42
2023-03-03T10:37:37.515Z,42
2023-03-03T10:42:45.438Z,42
2023-03-03T10:47:53.400Z,42
2023-03-03T10:53:01.432Z,41
2023-03-03T11:03:17.283Z,42
2023-03-03T11:08:25.286Z,42
2023-03-03T11:13:33.223Z,42
2023-03-03T11:23:49.185Z,42
2023-03-03T11:39:13.011Z,42
2023-03-03T11:44:20.976Z,42
2023-03-03T11:49:28.918Z,42
2023-03-03T11:54:36.911Z,42
2023-03-03T11:59:44.836Z,42
2023-03-03T12:04:52.783Z,42
2023-03-03T12:10:00.762Z,41
2023-03-03T12:15:08.725Z,41
2023-03-03T12:20:16.719Z,41
2023-03-03T12:25:24.677Z,41
2023-03-03T12:30:32.671Z,42
2023-03-03T12:35:40.621Z,42
2023-03-03T12:40:48.550Z,42
2023-03-03T12:45:56.534Z,42
2023-03-03T12:51:04.445Z,42
2023-03-03T12:56:12.419Z,42
2023-03-03T13:01:20.376Z,42
2023-03-03T13:06:28.298Z,42
2023-03-03T13:16:44.304Z,42
2023-03-03T13:21:52.213Z,41
2023-03-03T13:27:00.197Z,41
2023-03-03T13:32:08.209Z,41
2023-03-03T13:37:16.127Z,41
2023-03-03T13:42:22.286Z,40
2023-03-03T13:47:30.251Z,40
2023-03-03T13:52:38.195Z,39
2023-03-03T13:57:46.155Z,39
2023-03-03T14:02:54.149Z,39
2023-03-03T14:08:02.075Z,38
2023-03-03T14:13:10.040Z,37
2023-03-03T14:18:18.011Z,37
2023-03-03T14:23:25.952Z,36
2023-03-03T14:28:33.919Z,36
2023-03-03T14:33:42.079Z,36
2023-03-03T14:38:49.849Z,36
2023-03-03T14:43:57.808Z,35
2023-03-03T14:49:05.760Z,35
2023-03-03T14:54:13.700Z,34
2023-03-03T14:59:21.675Z,34
2023-03-03T15:04:29.656Z,34
2023-03-03T15:09:37.583Z,33
2023-03-03T15:14:45.529Z,33
2023-03-03T15:19:53.499Z,33
2023-03-03T15:25:01.412Z,33
2023-03-03T15:30:09.377Z,32
2023-03-03T15:35:17.428Z,32
2023-03-03T15:40:25.300Z,32
2023-03-03T15:45:31.472Z,32
2023-03-03T15:50:37.665Z,32
2023-03-03T15:55:45.583Z,32
2023-03-03T16:00:53.534Z,32
2023-03-03T16:06:01.520Z,32
2023-03-03T16:11:07.652Z,32
2023-03-03T16:16:15.666Z,32
2023-03-03T16:21:21.786Z,31
2023-03-03T16:26:27.989Z,31
2023-03-03T16:31:34.200Z,31
2023-03-03T16:36:42.134Z,31
2023-03-03T16:41:48.278Z,31
2023-03-03T16:46:57.541Z,31
2023-03-03T16:52:02.430Z,32
2023-03-03T16:57:10.338Z,31
2023-03-03T17:02:18.301Z,31
2023-03-03T17:07:26.301Z,31
2023-03-03T17:12:32.444Z,31
2023-03-03T17:17:38.603Z,32
2023-03-03T17:22:46.620Z,31
2023-03-03T17:27:52.964Z,32
2023-03-03T17:33:00.674Z,32
2023-03-03T17:38:06.909Z,32
2023-03-03T17:43:13.101Z,32
2023-03-03T17:48:19.818Z,32
2023-03-03T17:53:27.217Z,32
2023-03-03T17:58:35.174Z,32
2023-03-03T18:03:43.208Z,32
2023-03-03T18:08:51.061Z,32
2023-03-03T18:13:58.999Z,32
2023-03-03T18:24:14.945Z,32
2023-03-03T18:29:22.865Z,32
2023-03-03T18:34:29.042Z,32
2023-03-03T18:39:37.022Z,33
2023-03-03T18:49:51.059Z,33
2023-03-03T18:54:57.317Z,33
2023-03-03T19:00:03.481Z,33
2023-03-03T19:05:09.735Z,33
2023-03-03T19:10:15.861Z,33
2023-03-03T19:15:23.771Z,33
2023-03-03T19:20:30.876Z,33
2023-03-03T19:25:36.179Z,34
2023-03-03T19:30:44.087Z,34
2023-03-03T19:35:50.344Z,34
2023-03-03T19:41:00.412Z,34
2023-03-03T19:46:02.672Z,34
2023-03-03T19:51:10.571Z,34
2023-03-03T19:56:16.766Z,34
2023-03-03T20:01:23.019Z,35
2023-03-03T20:06:29.118Z,35
2023-03-03T20:11:35.303Z,35
2023-03-03T20:16:43.210Z,35
2023-03-03T20:21:51.184Z,35
2023-03-03T20:26:57.501Z,35
2023-03-03T20:32:03.650Z,35
2023-03-03T20:37:09.776Z,35
2023-03-03T20:42:17.708Z,36
2023-03-03T20:47:25.649Z,36
2023-03-03T20:52:31.747Z,36
2023-03-03T20:57:39.717Z,36
2023-03-03T21:02:45.968Z,36
2023-03-03T21:07:53.903Z,36
2023-03-03T21:13:00.131Z,36
2023-03-03T21:18:06.256Z,36
2023-03-03T21:23:12.514Z,36
2023-03-03T21:28:18.611Z,36
2023-03-03T21:33:26.497Z,37
2023-03-03T21:38:32.738Z,37
2023-03-03T21:43:38.937Z,37
2023-03-03T21:48:45.085Z,37
2023-03-03T21:53:53.052Z,37
2023-03-03T21:58:59.255Z,37
2023-03-03T22:04:05.398Z,37
2023-03-03T22:09:11.570Z,37
2023-03-03T22:14:19.554Z,38
2023-03-03T22:19:25.713Z,38
2023-03-03T22:24:33.667Z,38
2023-03-03T22:29:39.865Z,38
2023-03-03T22:34:47.821Z,38
2023-03-03T22:39:55.754Z,38
2023-03-03T22:45:02.051Z,38
2023-03-03T22:50:09.886Z,38
2023-03-03T22:55:16.001Z,38
2023-03-03T23:00:22.286Z,38
2023-03-03T23:05:30.236Z,38
2023-03-03T23:10:38.162Z,38
2023-03-03T23:15:44.442Z,38
2023-03-03T23:20:52.272Z,38
2023-03-03T23:25:58.482Z,38
2023-03-03T23:31:06.461Z,38
2023-03-03T23:36:12.594Z,38
2023-03-03T23:41:18.701Z,38
2023-03-03T23:46:26.749Z,38
2023-03-03T23:51:32.902Z,38
2023-03-03T23:56:40.850Z,38
